sensor_id;sensor_type;location;lat;lon;timestamp;P1;durP1;ratioP1;P2;durP2;ratioP2
23236;SDS011;11787;52.018;8.570;2023-03-30T00:02:25;6.68;;;2.78;;
23236;SDS011;11787;52.018;8.570;2023-03-30T00:04:55;4.82;;;2.80;;
23236;SDS011;11787;52.018;8.570;2023-03-30T00:07:26;4.88;;;2.83;;
23236;SDS011;11787;52.018;8.570;2023-03-30T00:09:54;6.22;;;2.90;;
23236;SDS011;11787;52.018;8.570;2023-03-30T00:12:20;3.80;;;2.58;;
23236;SDS011;11787;52.018;8.570;2023-03-30T00:14:46;6.80;;;2.75;;
23236;SDS011;11787;52.018;8.570;2023-03-30T00:17:12;4.28;;;2.55;;
23236;SDS011;11787;52.018;8.570;2023-03-30T00:19:37;4.70;;;2.55;;
23236;SDS011;11787;52.018;8.570;2023-03-30T00:22:03;6.00;;;2.67;;
23236;SDS011;11787;52.018;8.570;2023-03-30T00:24:29;6.18;;;2.60;;
23236;SDS011;11787;52.018;8.570;2023-03-30T00:26:55;5.63;;;2.67;;
23236;SDS011;11787;52.018;8.570;2023-03-30T00:29:21;6.82;;;2.58;;
23236;SDS011;11787;52.018;8.570;2023-03-30T00:31:46;3.15;;;2.33;;
23236;SDS011;11787;52.018;8.570;2023-03-30T00:34:12;6.00;;;2.50;;
23236;SDS011;11787;52.018;8.570;2023-03-30T00:36:37;3.28;;;2.35;;
23236;SDS011;11787;52.018;8.570;2023-03-30T00:39:03;5.90;;;2.72;;
23236;SDS011;11787;52.018;8.570;2023-03-30T00:41:35;4.32;;;2.50;;
23236;SDS011;11787;52.018;8.570;2023-03-30T00:44:02;4.07;;;2.33;;
23236;SDS011;11787;52.018;8.570;2023-03-30T00:46:33;5.60;;;2.65;;
23236;SDS011;11787;52.018;8.570;2023-03-30T00:49:04;6.05;;;2.30;;
23236;SDS011;11787;52.018;8.570;2023-03-30T00:51:33;4.80;;;2.45;;
23236;SDS011;11787;52.018;8.570;2023-03-30T00:54:12;7.45;;;2.95;;
23236;SDS011;11787;52.018;8.570;2023-03-30T00:56:39;8.18;;;2.30;;
23236;SDS011;11787;52.018;8.570;2023-03-30T00:59:05;6.43;;;2.50;;
23236;SDS011;11787;52.018;8.570;2023-03-30T01:01:33;4.88;;;2.40;;
23236;SDS011;11787;52.018;8.570;2023-03-30T01:04:02;4.63;;;2.40;;
23236;SDS011;11787;52.018;8.570;2023-03-30T01:06:29;5.03;;;2.78;;
23236;SDS011;11787;52.018;8.570;2023-03-30T01:08:56;4.28;;;2.55;;
23236;SDS011;11787;52.018;8.570;2023-03-30T01:11:23;7.93;;;2.45;;
23236;SDS011;11787;52.018;8.570;2023-03-30T01:13:52;5.45;;;2.30;;
23236;SDS011;11787;52.018;8.570;2023-03-30T01:30:34;4.43;;;2.30;;
23236;SDS011;11787;52.018;8.570;2023-03-30T01:36:35;4.22;;;2.10;;
23236;SDS011;11787;52.018;8.570;2023-03-30T01:42:29;3.03;;;2.15;;
23236;SDS011;11787;52.018;8.570;2023-03-30T01:50:30;6.40;;;2.35;;
23236;SDS011;11787;52.018;8.570;2023-03-30T01:53:17;6.28;;;2.72;;
23236;SDS011;11787;52.018;8.570;2023-03-30T01:55:56;5.55;;;2.22;;
23236;SDS011;11787;52.018;8.570;2023-03-30T01:58:25;5.93;;;2.30;;
23236;SDS011;11787;52.018;8.570;2023-03-30T02:00:59;4.57;;;2.00;;
23236;SDS011;11787;52.018;8.570;2023-03-30T02:03:27;4.90;;;2.10;;
23236;SDS011;11787;52.018;8.570;2023-03-30T02:05:56;7.53;;;2.42;;
23236;SDS011;11787;52.018;8.570;2023-03-30T02:08:28;6.85;;;2.60;;
23236;SDS011;11787;52.018;8.570;2023-03-30T02:10:56;5.82;;;2.80;;
23236;SDS011;11787;52.018;8.570;2023-03-30T02:13:23;5.28;;;2.58;;
23236;SDS011;11787;52.018;8.570;2023-03-30T02:15:53;4.22;;;2.33;;
23236;SDS011;11787;52.018;8.570;2023-03-30T02:18:22;5.50;;;2.60;;
23236;SDS011;11787;52.018;8.570;2023-03-30T02:20:48;7.55;;;3.20;;
23236;SDS011;11787;52.018;8.570;2023-03-30T02:23:15;6.10;;;3.25;;
23236;SDS011;11787;52.018;8.570;2023-03-30T02:25:44;9.05;;;3.25;;
23236;SDS011;11787;52.018;8.570;2023-03-30T02:28:10;4.72;;;2.90;;
23236;SDS011;11787;52.018;8.570;2023-03-30T02:30:38;7.00;;;3.35;;
23236;SDS011;11787;52.018;8.570;2023-03-30T02:33:07;7.75;;;3.53;;
23236;SDS011;11787;52.018;8.570;2023-03-30T02:52:05;8.80;;;3.90;;
23236;SDS011;11787;52.018;8.570;2023-03-30T02:54:39;6.82;;;3.40;;
23236;SDS011;11787;52.018;8.570;2023-03-30T02:58:14;6.50;;;2.85;;
23236;SDS011;11787;52.018;8.570;2023-03-30T03:02:47;7.13;;;3.05;;
23236;SDS011;11787;52.018;8.570;2023-03-30T03:05:19;5.73;;;2.50;;
23236;SDS011;11787;52.018;8.570;2023-03-30T03:07:45;7.28;;;2.53;;
23236;SDS011;11787;52.018;8.570;2023-03-30T03:10:12;4.05;;;2.20;;
23236;SDS011;11787;52.018;8.570;2023-03-30T03:12:38;4.55;;;2.10;;
23236;SDS011;11787;52.018;8.570;2023-03-30T03:15:06;6.20;;;2.20;;
23236;SDS011;11787;52.018;8.570;2023-03-30T03:17:32;7.63;;;2.50;;
23236;SDS011;11787;52.018;8.570;2023-03-30T03:20:01;5.15;;;2.35;;
23236;SDS011;11787;52.018;8.570;2023-03-30T03:22:28;7.97;;;2.53;;
23236;SDS011;11787;52.018;8.570;2023-03-30T03:24:54;5.18;;;2.10;;
23236;SDS011;11787;52.018;8.570;2023-03-30T03:27:20;5.22;;;2.00;;
23236;SDS011;11787;52.018;8.570;2023-03-30T03:29:45;5.60;;;2.10;;
23236;SDS011;11787;52.018;8.570;2023-03-30T03:32:11;4.88;;;2.38;;
23236;SDS011;11787;52.018;8.570;2023-03-30T03:34:37;5.65;;;2.33;;
23236;SDS011;11787;52.018;8.570;2023-03-30T03:37:03;4.97;;;1.88;;
23236;SDS011;11787;52.018;8.570;2023-03-30T03:39:29;5.70;;;1.90;;
23236;SDS011;11787;52.018;8.570;2023-03-30T03:41:55;5.65;;;2.40;;
23236;SDS011;11787;52.018;8.570;2023-03-30T03:44:21;4.97;;;2.35;;
23236;SDS011;11787;52.018;8.570;2023-03-30T03:46:46;4.80;;;2.13;;
23236;SDS011;11787;52.018;8.570;2023-03-30T03:49:12;6.85;;;2.00;;
23236;SDS011;11787;52.018;8.570;2023-03-30T03:51:38;7.95;;;2.35;;
23236;SDS011;11787;52.018;8.570;2023-03-30T03:54:03;5.13;;;2.30;;
23236;SDS011;11787;52.018;8.570;2023-03-30T03:56:29;5.57;;;2.17;;
23236;SDS011;11787;52.018;8.570;2023-03-30T03:58:55;8.65;;;2.53;;
23236;SDS011;11787;52.018;8.570;2023-03-30T04:01:21;6.88;;;2.10;;
23236;SDS011;11787;52.018;8.570;2023-03-30T04:03:46;6.15;;;1.92;;
23236;SDS011;11787;52.018;8.570;2023-03-30T04:06:12;7.20;;;2.20;;
23236;SDS011;11787;52.018;8.570;2023-03-30T04:08:37;7.10;;;2.25;;
23236;SDS011;11787;52.018;8.570;2023-03-30T04:11:07;4.50;;;1.70;;
23236;SDS011;11787;52.018;8.570;2023-03-30T04:13:35;4.82;;;1.88;;
23236;SDS011;11787;52.018;8.570;2023-03-30T04:16:02;5.53;;;2.13;;
23236;SDS011;11787;52.018;8.570;2023-03-30T04:18:28;5.50;;;1.95;;
23236;SDS011;11787;52.018;8.570;2023-03-30T04:20:57;6.25;;;1.73;;
23236;SDS011;11787;52.018;8.570;2023-03-30T04:23:28;4.10;;;1.85;;
23236;SDS011;11787;52.018;8.570;2023-03-30T04:25:58;4.28;;;1.80;;
23236;SDS011;11787;52.018;8.570;2023-03-30T04:28:26;5.18;;;1.50;;
23236;SDS011;11787;52.018;8.570;2023-03-30T04:30:56;6.70;;;1.80;;
23236;SDS011;11787;52.018;8.570;2023-03-30T04:33:22;3.70;;;2.10;;
23236;SDS011;11787;52.018;8.570;2023-03-30T04:35:48;4.20;;;1.80;;
23236;SDS011;11787;52.018;8.570;2023-03-30T04:38:14;6.13;;;1.50;;
23236;SDS011;11787;52.018;8.570;2023-03-30T04:40:46;6.65;;;1.98;;
23236;SDS011;11787;52.018;8.570;2023-03-30T04:43:15;5.47;;;1.65;;
23236;SDS011;11787;52.018;8.570;2023-03-30T04:45:47;3.58;;;1.88;;
23236;SDS011;11787;52.018;8.570;2023-03-30T04:48:14;6.72;;;2.03;;
23236;SDS011;11787;52.018;8.570;2023-03-30T04:50:40;2.83;;;1.40;;
23236;SDS011;11787;52.018;8.570;2023-03-30T04:53:06;5.72;;;2.03;;
23236;SDS011;11787;52.018;8.570;2023-03-30T04:55:31;7.47;;;2.33;;
23236;SDS011;11787;52.018;8.570;2023-03-30T04:57:57;7.68;;;2.03;;
23236;SDS011;11787;52.018;8.570;2023-03-30T05:00:22;7.60;;;2.10;;
23236;SDS011;11787;52.018;8.570;2023-03-30T05:02:48;7.93;;;1.90;;
23236;SDS011;11787;52.018;8.570;2023-03-30T05:05:13;6.60;;;2.10;;
23236;SDS011;11787;52.018;8.570;2023-03-30T05:07:39;4.35;;;2.05;;
23236;SDS011;11787;52.018;8.570;2023-03-30T05:10:05;7.22;;;1.90;;
23236;SDS011;11787;52.018;8.570;2023-03-30T05:12:31;6.00;;;2.65;;
23236;SDS011;11787;52.018;8.570;2023-03-30T05:14:57;6.95;;;2.30;;
23236;SDS011;11787;52.018;8.570;2023-03-30T05:17:22;8.80;;;2.95;;
23236;SDS011;11787;52.018;8.570;2023-03-30T05:19:48;5.75;;;2.17;;
23236;SDS011;11787;52.018;8.570;2023-03-30T05:22:14;6.68;;;1.90;;
23236;SDS011;11787;52.018;8.570;2023-03-30T05:24:40;7.20;;;1.98;;
23236;SDS011;11787;52.018;8.570;2023-03-30T05:27:05;8.93;;;2.60;;
23236;SDS011;11787;52.018;8.570;2023-03-30T05:29:31;7.35;;;2.33;;
23236;SDS011;11787;52.018;8.570;2023-03-30T05:31:56;5.75;;;2.20;;
23236;SDS011;11787;52.018;8.570;2023-03-30T05:34:22;6.75;;;2.42;;
23236;SDS011;11787;52.018;8.570;2023-03-30T05:36:48;7.53;;;2.30;;
23236;SDS011;11787;52.018;8.570;2023-03-30T05:39:14;4.88;;;2.20;;
23236;SDS011;11787;52.018;8.570;2023-03-30T05:41:39;6.38;;;2.22;;
23236;SDS011;11787;52.018;8.570;2023-03-30T05:44:05;9.07;;;2.72;;
23236;SDS011;11787;52.018;8.570;2023-03-30T05:46:31;7.35;;;2.67;;
23236;SDS011;11787;52.018;8.570;2023-03-30T05:48:57;6.55;;;2.38;;
23236;SDS011;11787;52.018;8.570;2023-03-30T05:51:22;5.72;;;2.08;;
23236;SDS011;11787;52.018;8.570;2023-03-30T05:53:48;4.70;;;1.95;;
23236;SDS011;11787;52.018;8.570;2023-03-30T05:56:14;10.15;;;2.10;;
23236;SDS011;11787;52.018;8.570;2023-03-30T05:58:39;6.57;;;2.10;;
23236;SDS011;11787;52.018;8.570;2023-03-30T06:01:05;6.13;;;1.90;;
23236;SDS011;11787;52.018;8.570;2023-03-30T06:03:31;4.60;;;1.75;;
23236;SDS011;11787;52.018;8.570;2023-03-30T06:05:57;5.75;;;2.13;;
23236;SDS011;11787;52.018;8.570;2023-03-30T06:08:22;4.80;;;1.90;;
23236;SDS011;11787;52.018;8.570;2023-03-30T06:10:52;6.28;;;1.73;;
23236;SDS011;11787;52.018;8.570;2023-03-30T06:13:18;6.00;;;1.50;;
23236;SDS011;11787;52.018;8.570;2023-03-30T06:15:44;4.93;;;1.30;;
23236;SDS011;11787;52.018;8.570;2023-03-30T06:18:10;3.13;;;1.30;;
23236;SDS011;11787;52.018;8.570;2023-03-30T06:20:36;7.63;;;1.77;;
23236;SDS011;11787;52.018;8.570;2023-03-30T06:23:01;4.55;;;1.48;;
23236;SDS011;11787;52.018;8.570;2023-03-30T06:25:27;5.30;;;1.52;;
23236;SDS011;11787;52.018;8.570;2023-03-30T06:27:53;4.18;;;1.60;;
23236;SDS011;11787;52.018;8.570;2023-03-30T06:30:19;5.93;;;1.67;;
23236;SDS011;11787;52.018;8.570;2023-03-30T06:32:45;6.25;;;1.55;;
23236;SDS011;11787;52.018;8.570;2023-03-30T06:35:11;4.40;;;1.50;;
23236;SDS011;11787;52.018;8.570;2023-03-30T06:37:40;3.42;;;1.20;;
23236;SDS011;11787;52.018;8.570;2023-03-30T06:40:06;5.57;;;1.50;;
23236;SDS011;11787;52.018;8.570;2023-03-30T06:42:37;7.47;;;1.98;;
23236;SDS011;11787;52.018;8.570;2023-03-30T06:45:03;6.72;;;1.77;;
23236;SDS011;11787;52.018;8.570;2023-03-30T06:47:29;5.88;;;1.90;;
23236;SDS011;11787;52.018;8.570;2023-03-30T06:49:55;5.65;;;1.70;;
23236;SDS011;11787;52.018;8.570;2023-03-30T06:52:20;2.97;;;1.30;;
23236;SDS011;11787;52.018;8.570;2023-03-30T06:54:46;5.72;;;1.48;;
23236;SDS011;11787;52.018;8.570;2023-03-30T06:57:11;3.63;;;1.75;;
23236;SDS011;11787;52.018;8.570;2023-03-30T06:59:37;4.80;;;1.85;;
23236;SDS011;11787;52.018;8.570;2023-03-30T07:02:03;6.38;;;1.77;;
23236;SDS011;11787;52.018;8.570;2023-03-30T07:04:28;6.90;;;2.40;;
23236;SDS011;11787;52.018;8.570;2023-03-30T07:06:54;6.38;;;2.10;;
23236;SDS011;11787;52.018;8.570;2023-03-30T07:09:22;7.70;;;2.05;;
23236;SDS011;11787;52.018;8.570;2023-03-30T07:11:48;5.68;;;1.65;;
23236;SDS011;11787;52.018;8.570;2023-03-30T07:14:14;11.38;;;1.90;;
23236;SDS011;11787;52.018;8.570;2023-03-30T07:16:40;12.10;;;2.22;;
23236;SDS011;11787;52.018;8.570;2023-03-30T07:19:06;6.35;;;1.92;;
23236;SDS011;11787;52.018;8.570;2023-03-30T07:21:31;9.82;;;2.13;;
23236;SDS011;11787;52.018;8.570;2023-03-30T07:23:58;6.00;;;1.98;;
23236;SDS011;11787;52.018;8.570;2023-03-30T07:26:27;7.22;;;2.80;;
23236;SDS011;11787;52.018;8.570;2023-03-30T07:28:54;5.90;;;1.80;;
23236;SDS011;11787;52.018;8.570;2023-03-30T07:31:21;6.82;;;2.00;;
23236;SDS011;11787;52.018;8.570;2023-03-30T07:33:47;7.10;;;2.58;;
23236;SDS011;11787;52.018;8.570;2023-03-30T07:36:13;5.07;;;1.88;;
23236;SDS011;11787;52.018;8.570;2023-03-30T07:38:38;8.85;;;1.77;;
23236;SDS011;11787;52.018;8.570;2023-03-30T07:41:07;11.90;;;2.30;;
23236;SDS011;11787;52.018;8.570;2023-03-30T07:43:34;6.00;;;1.83;;
23236;SDS011;11787;52.018;8.570;2023-03-30T07:46:00;8.32;;;2.38;;
23236;SDS011;11787;52.018;8.570;2023-03-30T07:48:26;7.50;;;2.35;;
23236;SDS011;11787;52.018;8.570;2023-03-30T07:51:01;6.22;;;2.20;;
23236;SDS011;11787;52.018;8.570;2023-03-30T07:53:37;9.95;;;2.50;;
23236;SDS011;11787;52.018;8.570;2023-03-30T07:56:04;8.95;;;2.47;;
23236;SDS011;11787;52.018;8.570;2023-03-30T07:58:30;7.65;;;2.13;;
23236;SDS011;11787;52.018;8.570;2023-03-30T08:00:57;8.05;;;2.53;;
23236;SDS011;11787;52.018;8.570;2023-03-30T08:03:22;6.97;;;2.10;;
23236;SDS011;11787;52.018;8.570;2023-03-30T08:05:55;5.72;;;2.50;;
23236;SDS011;11787;52.018;8.570;2023-03-30T08:08:28;5.28;;;2.10;;
23236;SDS011;11787;52.018;8.570;2023-03-30T08:10:58;4.72;;;1.70;;
23236;SDS011;11787;52.018;8.570;2023-03-30T08:13:24;4.85;;;1.40;;
23236;SDS011;11787;52.018;8.570;2023-03-30T08:15:50;5.32;;;1.75;;
23236;SDS011;11787;52.018;8.570;2023-03-30T08:18:18;5.97;;;1.90;;
23236;SDS011;11787;52.018;8.570;2023-03-30T08:20:43;4.95;;;1.65;;
23236;SDS011;11787;52.018;8.570;2023-03-30T08:23:09;6.10;;;2.03;;
23236;SDS011;11787;52.018;8.570;2023-03-30T08:25:35;6.53;;;1.80;;
23236;SDS011;11787;52.018;8.570;2023-03-30T08:28:02;7.13;;;1.77;;
23236;SDS011;11787;52.018;8.570;2023-03-30T08:30:30;3.50;;;1.73;;
23236;SDS011;11787;52.018;8.570;2023-03-30T08:32:56;5.38;;;1.52;;
23236;SDS011;11787;52.018;8.570;2023-03-30T08:35:22;6.13;;;1.45;;
23236;SDS011;11787;52.018;8.570;2023-03-30T08:37:48;4.93;;;1.30;;
23236;SDS011;11787;52.018;8.570;2023-03-30T08:40:14;6.32;;;1.58;;
23236;SDS011;11787;52.018;8.570;2023-03-30T08:42:47;8.43;;;1.58;;
23236;SDS011;11787;52.018;8.570;2023-03-30T08:45:16;8.63;;;1.80;;
23236;SDS011;11787;52.018;8.570;2023-03-30T08:47:43;4.45;;;1.75;;
23236;SDS011;11787;52.018;8.570;2023-03-30T08:52:38;5.45;;;2.47;;
23236;SDS011;11787;52.018;8.570;2023-03-30T08:55:09;3.65;;;1.42;;
23236;SDS011;11787;52.018;8.570;2023-03-30T08:57:50;4.65;;;1.92;;
23236;SDS011;11787;52.018;8.570;2023-03-30T09:06:30;4.18;;;1.40;;
23236;SDS011;11787;52.018;8.570;2023-03-30T09:09:10;6.82;;;1.77;;
23236;SDS011;11787;52.018;8.570;2023-03-30T09:11:38;3.67;;;1.40;;
23236;SDS011;11787;52.018;8.570;2023-03-30T09:14:05;7.40;;;1.55;;
23236;SDS011;11787;52.018;8.570;2023-03-30T09:16:48;5.30;;;1.88;;
23236;SDS011;11787;52.018;8.570;2023-03-30T09:19:19;5.70;;;1.85;;
23236;SDS011;11787;52.018;8.570;2023-03-30T09:21:51;4.00;;;1.45;;
23236;SDS011;11787;52.018;8.570;2023-03-30T09:24:23;4.28;;;1.25;;
23236;SDS011;11787;52.018;8.570;2023-03-30T09:29:26;3.25;;;1.52;;
23236;SDS011;11787;52.018;8.570;2023-03-30T09:37:16;4.97;;;2.13;;
23236;SDS011;11787;52.018;8.570;2023-03-30T09:39:43;5.32;;;1.90;;
23236;SDS011;11787;52.018;8.570;2023-03-30T09:44:46;5.30;;;1.73;;
23236;SDS011;11787;52.018;8.570;2023-03-30T09:47:22;4.32;;;1.50;;
23236;SDS011;11787;52.018;8.570;2023-03-30T09:50:03;7.07;;;1.70;;
23236;SDS011;11787;52.018;8.570;2023-03-30T09:52:37;6.67;;;2.07;;
23236;SDS011;11787;52.018;8.570;2023-03-30T09:57:45;5.80;;;1.80;;
23236;SDS011;11787;52.018;8.570;2023-03-30T10:02:54;5.90;;;2.03;;
23236;SDS011;11787;52.018;8.570;2023-03-30T10:05:23;7.15;;;1.90;;
23236;SDS011;11787;52.018;8.570;2023-03-30T10:08:32;6.72;;;2.42;;
23236;SDS011;11787;52.018;8.570;2023-03-30T10:10:51;7.05;;;1.30;;
23236;SDS011;11787;52.018;8.570;2023-03-30T10:13:18;7.15;;;1.90;;
23236;SDS011;11787;52.018;8.570;2023-03-30T10:15:50;3.95;;;1.52;;
23236;SDS011;11787;52.018;8.570;2023-03-30T10:18:22;7.43;;;1.63;;
23236;SDS011;11787;52.018;8.570;2023-03-30T10:20:53;7.07;;;1.95;;
23236;SDS011;11787;52.018;8.570;2023-03-30T10:23:28;5.57;;;1.52;;
23236;SDS011;11787;52.018;8.570;2023-03-30T10:25:59;5.97;;;1.63;;
23236;SDS011;11787;52.018;8.570;2023-03-30T10:28:27;5.72;;;2.03;;
23236;SDS011;11787;52.018;8.570;2023-03-30T10:30:57;7.22;;;1.73;;
23236;SDS011;11787;52.018;8.570;2023-03-30T10:33:27;5.85;;;1.77;;
23236;SDS011;11787;52.018;8.570;2023-03-30T10:35:55;9.02;;;2.35;;
23236;SDS011;11787;52.018;8.570;2023-03-30T10:38:24;7.22;;;1.95;;
23236;SDS011;11787;52.018;8.570;2023-03-30T10:40:59;7.15;;;2.08;;
23236;SDS011;11787;52.018;8.570;2023-03-30T10:43:31;6.30;;;2.15;;
23236;SDS011;11787;52.018;8.570;2023-03-30T10:46:04;8.95;;;2.00;;
23236;SDS011;11787;52.018;8.570;2023-03-30T10:51:27;8.85;;;1.75;;
23236;SDS011;11787;52.018;8.570;2023-03-30T10:54:21;6.63;;;2.00;;
23236;SDS011;11787;52.018;8.570;2023-03-30T10:56:58;7.90;;;1.65;;
23236;SDS011;11787;52.018;8.570;2023-03-30T11:42:49;3.53;;;1.05;;
23236;SDS011;11787;52.018;8.570;2023-03-30T11:50:55;3.47;;;0.80;;
23236;SDS011;11787;52.018;8.570;2023-03-30T11:56:15;6.25;;;1.00;;
23236;SDS011;11787;52.018;8.570;2023-03-30T11:58:54;4.68;;;1.35;;
23236;SDS011;11787;52.018;8.570;2023-03-30T12:04:10;3.08;;;1.00;;
23236;SDS011;11787;52.018;8.570;2023-03-30T12:06:39;5.28;;;1.48;;
23236;SDS011;11787;52.018;8.570;2023-03-30T12:09:20;5.97;;;1.40;;
23236;SDS011;11787;52.018;8.570;2023-03-30T12:14:37;5.78;;;1.50;;
23236;SDS011;11787;52.018;8.570;2023-03-30T12:17:26;6.15;;;1.63;;
23236;SDS011;11787;52.018;8.570;2023-03-30T12:27:34;8.07;;;1.90;;
23236;SDS011;11787;52.018;8.570;2023-03-30T12:30:12;4.82;;;1.80;;
23236;SDS011;11787;52.018;8.570;2023-03-30T12:33:00;11.90;;;1.50;;
23236;SDS011;11787;52.018;8.570;2023-03-30T12:38:20;7.45;;;1.60;;
23236;SDS011;11787;52.018;8.570;2023-03-30T12:46:18;9.80;;;2.13;;
23236;SDS011;11787;52.018;8.570;2023-03-30T12:56:57;9.45;;;1.85;;
23236;SDS011;11787;52.018;8.570;2023-03-30T13:00:24;9.48;;;1.90;;
23236;SDS011;11787;52.018;8.570;2023-03-30T13:02:51;7.80;;;1.58;;
23236;SDS011;11787;52.018;8.570;2023-03-30T13:05:25;8.73;;;2.08;;
23236;SDS011;11787;52.018;8.570;2023-03-30T13:08:02;10.43;;;2.17;;
23236;SDS011;11787;52.018;8.570;2023-03-30T13:12:56;5.30;;;1.83;;
23236;SDS011;11787;52.018;8.570;2023-03-30T13:18:22;7.45;;;1.58;;
23236;SDS011;11787;52.018;8.570;2023-03-30T13:41:03;8.82;;;2.22;;
23236;SDS011;11787;52.018;8.570;2023-03-30T13:46:53;13.55;;;4.13;;
23236;SDS011;11787;52.018;8.570;2023-03-30T13:49:33;8.52;;;1.92;;
23236;SDS011;11787;52.018;8.570;2023-03-30T13:52:35;8.25;;;2.63;;
23236;SDS011;11787;52.018;8.570;2023-03-30T13:55:09;8.88;;;2.65;;
23236;SDS011;11787;52.018;8.570;2023-03-30T13:57:58;11.25;;;2.67;;
23236;SDS011;11787;52.018;8.570;2023-03-30T14:00:34;7.32;;;2.00;;
23236;SDS011;11787;52.018;8.570;2023-03-30T14:03:57;9.05;;;2.17;;
23236;SDS011;11787;52.018;8.570;2023-03-30T14:06:26;7.93;;;2.08;;
23236;SDS011;11787;52.018;8.570;2023-03-30T14:09:13;7.07;;;2.20;;
23236;SDS011;11787;52.018;8.570;2023-03-30T14:11:44;6.55;;;1.10;;
23236;SDS011;11787;52.018;8.570;2023-03-30T14:14:17;5.75;;;1.52;;
23236;SDS011;11787;52.018;8.570;2023-03-30T14:16:58;8.27;;;2.20;;
23236;SDS011;11787;52.018;8.570;2023-03-30T14:19:35;10.43;;;2.38;;
23236;SDS011;11787;52.018;8.570;2023-03-30T14:22:10;7.88;;;2.22;;
23236;SDS011;11787;52.018;8.570;2023-03-30T14:24:54;8.02;;;1.85;;
23236;SDS011;11787;52.018;8.570;2023-03-30T14:27:21;8.32;;;2.17;;
23236;SDS011;11787;52.018;8.570;2023-03-30T14:29:48;7.70;;;2.45;;
23236;SDS011;11787;52.018;8.570;2023-03-30T14:32:16;8.43;;;1.80;;
23236;SDS011;11787;52.018;8.570;2023-03-30T14:34:49;11.63;;;2.40;;
23236;SDS011;11787;52.018;8.570;2023-03-30T14:37:15;5.97;;;1.98;;
23236;SDS011;11787;52.018;8.570;2023-03-30T14:39:43;7.25;;;2.10;;
23236;SDS011;11787;52.018;8.570;2023-03-30T14:42:15;9.05;;;2.00;;
23236;SDS011;11787;52.018;8.570;2023-03-30T14:44:42;9.30;;;1.98;;
23236;SDS011;11787;52.018;8.570;2023-03-30T14:47:10;6.65;;;1.63;;
23236;SDS011;11787;52.018;8.570;2023-03-30T14:49:36;5.68;;;1.85;;
23236;SDS011;11787;52.018;8.570;2023-03-30T14:54:42;5.38;;;1.90;;
23236;SDS011;11787;52.018;8.570;2023-03-30T14:57:10;7.90;;;1.90;;
23236;SDS011;11787;52.018;8.570;2023-03-30T14:59:40;3.65;;;1.27;;
23236;SDS011;11787;52.018;8.570;2023-03-30T15:02:19;5.63;;;1.35;;
23236;SDS011;11787;52.018;8.570;2023-03-30T15:04:48;5.68;;;1.30;;
23236;SDS011;11787;52.018;8.570;2023-03-30T15:07:14;5.30;;;1.80;;
23236;SDS011;11787;52.018;8.570;2023-03-30T15:09:41;4.78;;;1.60;;
23236;SDS011;11787;52.018;8.570;2023-03-30T15:12:12;5.00;;;1.30;;
23236;SDS011;11787;52.018;8.570;2023-03-30T15:15:05;5.55;;;1.67;;
23236;SDS011;11787;52.018;8.570;2023-03-30T15:17:32;6.22;;;1.83;;
23236;SDS011;11787;52.018;8.570;2023-03-30T15:20:01;7.22;;;1.48;;
23236;SDS011;11787;52.018;8.570;2023-03-30T15:22:36;6.55;;;2.25;;
23236;SDS011;11787;52.018;8.570;2023-03-30T15:25:06;7.55;;;2.05;;
23236;SDS011;11787;52.018;8.570;2023-03-30T15:27:35;6.38;;;2.00;;
23236;SDS011;11787;52.018;8.570;2023-03-30T15:30:02;7.05;;;1.80;;
23236;SDS011;11787;52.018;8.570;2023-03-30T15:32:32;6.47;;;1.67;;
23236;SDS011;11787;52.018;8.570;2023-03-30T15:37:43;6.05;;;1.67;;
23236;SDS011;11787;52.018;8.570;2023-03-30T15:45:42;5.55;;;2.05;;
23236;SDS011;11787;52.018;8.570;2023-03-30T15:48:12;5.20;;;1.40;;
23236;SDS011;11787;52.018;8.570;2023-03-30T15:50:41;4.65;;;1.80;;
23236;SDS011;11787;52.018;8.570;2023-03-30T15:53:12;5.97;;;1.90;;
23236;SDS011;11787;52.018;8.570;2023-03-30T15:55:44;4.22;;;1.70;;
23236;SDS011;11787;52.018;8.570;2023-03-30T15:58:16;6.68;;;2.30;;
23236;SDS011;11787;52.018;8.570;2023-03-30T16:00:46;6.95;;;1.70;;
23236;SDS011;11787;52.018;8.570;2023-03-30T16:03:12;6.85;;;1.83;;
23236;SDS011;11787;52.018;8.570;2023-03-30T16:05:38;3.70;;;1.60;;
23236;SDS011;11787;52.018;8.570;2023-03-30T16:08:03;8.45;;;1.85;;
23236;SDS011;11787;52.018;8.570;2023-03-30T16:10:30;4.72;;;1.67;;
23236;SDS011;11787;52.018;8.570;2023-03-30T16:12:57;7.10;;;1.90;;
23236;SDS011;11787;52.018;8.570;2023-03-30T16:15:25;6.07;;;1.83;;
23236;SDS011;11787;52.018;8.570;2023-03-30T16:17:53;6.13;;;1.85;;
23236;SDS011;11787;52.018;8.570;2023-03-30T16:20:19;8.18;;;2.20;;
23236;SDS011;11787;52.018;8.570;2023-03-30T16:22:52;10.30;;;2.72;;
23236;SDS011;11787;52.018;8.570;2023-03-30T16:25:19;4.30;;;2.03;;
23236;SDS011;11787;52.018;8.570;2023-03-30T16:27:46;6.65;;;2.10;;
23236;SDS011;11787;52.018;8.570;2023-03-30T16:30:13;8.60;;;2.40;;
23236;SDS011;11787;52.018;8.570;2023-03-30T16:32:47;8.82;;;2.70;;
23236;SDS011;11787;52.018;8.570;2023-03-30T16:35:13;7.28;;;2.42;;
23236;SDS011;11787;52.018;8.570;2023-03-30T16:37:38;6.53;;;2.13;;
23236;SDS011;11787;52.018;8.570;2023-03-30T16:40:27;4.05;;;1.95;;
23236;SDS011;11787;52.018;8.570;2023-03-30T16:42:59;5.10;;;1.47;;
23236;SDS011;11787;52.018;8.570;2023-03-30T16:45:25;7.05;;;2.22;;
23236;SDS011;11787;52.018;8.570;2023-03-30T16:47:51;7.60;;;2.10;;
23236;SDS011;11787;52.018;8.570;2023-03-30T16:53:17;7.80;;;2.30;;
23236;SDS011;11787;52.018;8.570;2023-03-30T16:55:43;5.55;;;1.95;;
23236;SDS011;11787;52.018;8.570;2023-03-30T16:58:10;7.90;;;1.80;;
23236;SDS011;11787;52.018;8.570;2023-03-30T17:00:42;9.40;;;2.60;;
23236;SDS011;11787;52.018;8.570;2023-03-30T17:03:12;8.77;;;2.22;;
23236;SDS011;11787;52.018;8.570;2023-03-30T17:05:38;6.45;;;2.30;;
23236;SDS011;11787;52.018;8.570;2023-03-30T17:08:26;10.02;;;2.13;;
23236;SDS011;11787;52.018;8.570;2023-03-30T17:10:52;8.93;;;2.40;;
23236;SDS011;11787;52.018;8.570;2023-03-30T17:13:20;7.70;;;2.42;;
23236;SDS011;11787;52.018;8.570;2023-03-30T17:15:46;7.63;;;2.00;;
23236;SDS011;11787;52.018;8.570;2023-03-30T17:18:15;9.98;;;2.08;;
23236;SDS011;11787;52.018;8.570;2023-03-30T17:20:45;4.88;;;1.77;;
23236;SDS011;11787;52.018;8.570;2023-03-30T17:23:12;8.98;;;2.22;;
23236;SDS011;11787;52.018;8.570;2023-03-30T17:25:40;5.75;;;1.92;;
23236;SDS011;11787;52.018;8.570;2023-03-30T17:28:06;4.05;;;1.77;;
23236;SDS011;11787;52.018;8.570;2023-03-30T17:30:35;6.60;;;2.20;;
23236;SDS011;11787;52.018;8.570;2023-03-30T17:33:06;6.22;;;1.70;;
23236;SDS011;11787;52.018;8.570;2023-03-30T17:35:36;7.13;;;2.33;;
23236;SDS011;11787;52.018;8.570;2023-03-30T17:38:03;6.60;;;2.05;;
23236;SDS011;11787;52.018;8.570;2023-03-30T17:40:33;5.60;;;1.65;;
23236;SDS011;11787;52.018;8.570;2023-03-30T17:43:03;6.93;;;2.30;;
23236;SDS011;11787;52.018;8.570;2023-03-30T17:45:29;7.47;;;2.30;;
23236;SDS011;11787;52.018;8.570;2023-03-30T17:47:57;8.18;;;2.28;;
23236;SDS011;11787;52.018;8.570;2023-03-30T17:53:01;8.38;;;2.08;;
23236;SDS011;11787;52.018;8.570;2023-03-30T17:55:28;7.82;;;2.30;;
23236;SDS011;11787;52.018;8.570;2023-03-30T17:57:56;5.53;;;2.33;;
23236;SDS011;11787;52.018;8.570;2023-03-30T18:00:32;9.38;;;2.85;;
23236;SDS011;11787;52.018;8.570;2023-03-30T18:02:58;8.27;;;3.13;;
23236;SDS011;11787;52.018;8.570;2023-03-30T18:05:28;7.18;;;3.10;;
23236;SDS011;11787;52.018;8.570;2023-03-30T18:07:56;11.90;;;3.67;;
23236;SDS011;11787;52.018;8.570;2023-03-30T18:10:26;10.88;;;3.92;;
23236;SDS011;11787;52.018;8.570;2023-03-30T18:13:02;10.77;;;4.75;;
23236;SDS011;11787;52.018;8.570;2023-03-30T18:15:28;8.85;;;4.15;;
23236;SDS011;11787;52.018;8.570;2023-03-30T18:17:54;8.13;;;4.15;;
23236;SDS011;11787;52.018;8.570;2023-03-30T18:23:05;11.05;;;3.95;;
23236;SDS011;11787;52.018;8.570;2023-03-30T18:25:32;9.57;;;3.10;;